sensor_id;sensor_type;location;lat;lon;timestamp;P1;durP1;ratioP1;P2;durP2;ratioP2
27539;SDS011;15906;52.046;4.724;2022-12-18T00:02:05;116.57;;;36.67;;
27539;SDS011;15906;52.046;4.724;2022-12-18T00:04:31;118.53;;;36.13;;
27539;SDS011;15906;52.046;4.724;2022-12-18T00:06:56;121.93;;;36.30;;
27539;SDS011;15906;52.046;4.724;2022-12-18T00:09:22;107.83;;;35.97;;
27539;SDS011;15906;52.046;4.724;2022-12-18T00:11:48;110.93;;;33.87;;
27539;SDS011;15906;52.046;4.724;2022-12-18T00:14:13;107.37;;;36.23;;
27539;SDS011;15906;52.046;4.724;2022-12-18T00:16:39;99.97;;;35.60;;
27539;SDS011;15906;52.046;4.724;2022-12-18T00:19:08;118.27;;;35.07;;
27539;SDS011;15906;52.046;4.724;2022-12-18T00:21:35;106.07;;;36.33;;
27539;SDS011;15906;52.046;4.724;2022-12-18T00:24:00;115.10;;;37.27;;
27539;SDS011;15906;52.046;4.724;2022-12-18T00:26:27;134.37;;;36.57;;
27539;SDS011;15906;52.046;4.724;2022-12-18T00:28:54;148.97;;;35.33;;
27539;SDS011;15906;52.046;4.724;2022-12-18T00:31:23;105.33;;;35.33;;
27539;SDS011;15906;52.046;4.724;2022-12-18T00:33:50;115.40;;;34.40;;
27539;SDS011;15906;52.046;4.724;2022-12-18T00:36:17;132.07;;;35.40;;
27539;SDS011;15906;52.046;4.724;2022-12-18T00:38:50;110.70;;;34.57;;
27539;SDS011;15906;52.046;4.724;2022-12-18T00:41:17;112.00;;;35.93;;
27539;SDS011;15906;52.046;4.724;2022-12-18T00:44:03;112.70;;;32.67;;
27539;SDS011;15906;52.046;4.724;2022-12-18T00:46:30;130.83;;;31.83;;
27539;SDS011;15906;52.046;4.724;2022-12-18T00:48:56;98.67;;;29.63;;
27539;SDS011;15906;52.046;4.724;2022-12-18T00:51:22;113.27;;;33.90;;
27539;SDS011;15906;52.046;4.724;2022-12-18T00:53:48;118.37;;;34.60;;
27539;SDS011;15906;52.046;4.724;2022-12-18T00:56:14;117.43;;;35.97;;
27539;SDS011;15906;52.046;4.724;2022-12-18T00:58:39;94.03;;;32.20;;
27539;SDS011;15906;52.046;4.724;2022-12-18T01:01:05;107.83;;;33.00;;
27539;SDS011;15906;52.046;4.724;2022-12-18T01:03:31;115.53;;;34.53;;
27539;SDS011;15906;52.046;4.724;2022-12-18T01:05:57;98.50;;;32.73;;
27539;SDS011;15906;52.046;4.724;2022-12-18T01:08:22;118.63;;;34.17;;
27539;SDS011;15906;52.046;4.724;2022-12-18T01:10:48;107.17;;;33.87;;
27539;SDS011;15906;52.046;4.724;2022-12-18T01:13:14;91.43;;;31.30;;
27539;SDS011;15906;52.046;4.724;2022-12-18T01:15:39;102.97;;;33.97;;
27539;SDS011;15906;52.046;4.724;2022-12-18T01:18:05;128.37;;;36.90;;
27539;SDS011;15906;52.046;4.724;2022-12-18T01:20:31;98.03;;;33.63;;
27539;SDS011;15906;52.046;4.724;2022-12-18T01:22:57;84.90;;;25.00;;
27539;SDS011;15906;52.046;4.724;2022-12-18T01:25:23;100.30;;;31.20;;
27539;SDS011;15906;52.046;4.724;2022-12-18T01:27:48;99.73;;;33.83;;
27539;SDS011;15906;52.046;4.724;2022-12-18T01:30:14;100.23;;;32.33;;
27539;SDS011;15906;52.046;4.724;2022-12-18T01:32:40;84.43;;;30.73;;
27539;SDS011;15906;52.046;4.724;2022-12-18T01:35:05;103.27;;;33.83;;
27539;SDS011;15906;52.046;4.724;2022-12-18T01:37:31;112.43;;;33.13;;
27539;SDS011;15906;52.046;4.724;2022-12-18T01:39:57;80.33;;;30.53;;
27539;SDS011;15906;52.046;4.724;2022-12-18T01:42:23;69.67;;;25.63;;
27539;SDS011;15906;52.046;4.724;2022-12-18T01:47:39;107.67;;;32.63;;
27539;SDS011;15906;52.046;4.724;2022-12-18T01:50:35;78.23;;;29.03;;
27539;SDS011;15906;52.046;4.724;2022-12-18T01:53:19;76.50;;;30.70;;
27539;SDS011;15906;52.046;4.724;2022-12-18T01:55:50;91.57;;;30.10;;
27539;SDS011;15906;52.046;4.724;2022-12-18T01:58:19;94.97;;;29.63;;
27539;SDS011;15906;52.046;4.724;2022-12-18T02:00:48;98.90;;;32.57;;
27539;SDS011;15906;52.046;4.724;2022-12-18T02:03:13;87.87;;;29.63;;
27539;SDS011;15906;52.046;4.724;2022-12-18T02:05:57;88.10;;;30.10;;
27539;SDS011;15906;52.046;4.724;2022-12-18T02:08:56;84.37;;;29.13;;
27539;SDS011;15906;52.046;4.724;2022-12-18T02:18:54;84.97;;;28.60;;
27539;SDS011;15906;52.046;4.724;2022-12-18T02:26:49;97.30;;;32.03;;
27539;SDS011;15906;52.046;4.724;2022-12-18T02:29:24;102.27;;;31.50;;
27539;SDS011;15906;52.046;4.724;2022-12-18T02:31:53;86.17;;;29.43;;
27539;SDS011;15906;52.046;4.724;2022-12-18T02:34:22;89.50;;;30.87;;
27539;SDS011;15906;52.046;4.724;2022-12-18T02:36:51;99.90;;;32.83;;
27539;SDS011;15906;52.046;4.724;2022-12-18T02:39:19;87.60;;;30.97;;
27539;SDS011;15906;52.046;4.724;2022-12-18T02:41:46;80.57;;;31.13;;
27539;SDS011;15906;52.046;4.724;2022-12-18T02:44:13;89.23;;;30.47;;
27539;SDS011;15906;52.046;4.724;2022-12-18T02:46:40;90.47;;;30.00;;
27539;SDS011;15906;52.046;4.724;2022-12-18T03:00:06;95.77;;;28.97;;
27539;SDS011;15906;52.046;4.724;2022-12-18T03:05:31;84.47;;;27.87;;
27539;SDS011;15906;52.046;4.724;2022-12-18T03:08:07;72.63;;;26.83;;
27539;SDS011;15906;52.046;4.724;2022-12-18T03:10:39;97.00;;;28.50;;
27539;SDS011;15906;52.046;4.724;2022-12-18T03:13:14;74.70;;;28.80;;
27539;SDS011;15906;52.046;4.724;2022-12-18T03:15:46;77.53;;;27.27;;
27539;SDS011;15906;52.046;4.724;2022-12-18T03:18:18;68.30;;;26.77;;
27539;SDS011;15906;52.046;4.724;2022-12-18T03:21:06;82.43;;;29.70;;
27539;SDS011;15906;52.046;4.724;2022-12-18T03:23:35;65.03;;;26.77;;
27539;SDS011;15906;52.046;4.724;2022-12-18T03:26:06;77.07;;;25.07;;
27539;SDS011;15906;52.046;4.724;2022-12-18T03:28:39;65.07;;;26.73;;
27539;SDS011;15906;52.046;4.724;2022-12-18T03:31:07;59.30;;;25.80;;
27539;SDS011;15906;52.046;4.724;2022-12-18T03:33:41;67.23;;;26.43;;
27539;SDS011;15906;52.046;4.724;2022-12-18T03:36:12;74.40;;;28.50;;
27539;SDS011;15906;52.046;4.724;2022-12-18T03:38:37;75.37;;;25.33;;
27539;SDS011;15906;52.046;4.724;2022-12-18T03:44:00;71.33;;;28.07;;
27539;SDS011;15906;52.046;4.724;2022-12-18T03:46:43;78.83;;;29.23;;
27539;SDS011;15906;52.046;4.724;2022-12-18T03:54:49;74.37;;;29.70;;
27539;SDS011;15906;52.046;4.724;2022-12-18T03:57:18;85.10;;;32.17;;
27539;SDS011;15906;52.046;4.724;2022-12-18T03:59:45;79.20;;;31.10;;
27539;SDS011;15906;52.046;4.724;2022-12-18T04:02:15;83.60;;;31.30;;
27539;SDS011;15906;52.046;4.724;2022-12-18T04:04:42;87.50;;;33.03;;
27539;SDS011;15906;52.046;4.724;2022-12-18T04:07:08;100.97;;;33.67;;
27539;SDS011;15906;52.046;4.724;2022-12-18T04:09:35;85.60;;;31.67;;
27539;SDS011;15906;52.046;4.724;2022-12-18T04:12:03;90.10;;;33.10;;
27539;SDS011;15906;52.046;4.724;2022-12-18T04:14:28;89.43;;;34.57;;
27539;SDS011;15906;52.046;4.724;2022-12-18T04:16:54;78.37;;;31.93;;
27539;SDS011;15906;52.046;4.724;2022-12-18T04:19:19;87.57;;;31.20;;
27539;SDS011;15906;52.046;4.724;2022-12-18T04:21:45;84.73;;;31.13;;
27539;SDS011;15906;52.046;4.724;2022-12-18T04:24:10;76.80;;;30.03;;
27539;SDS011;15906;52.046;4.724;2022-12-18T04:26:36;83.90;;;31.67;;
27539;SDS011;15906;52.046;4.724;2022-12-18T04:29:02;73.40;;;29.43;;
27539;SDS011;15906;52.046;4.724;2022-12-18T04:31:28;85.23;;;32.00;;
27539;SDS011;15906;52.046;4.724;2022-12-18T04:33:53;77.93;;;28.33;;
27539;SDS011;15906;52.046;4.724;2022-12-18T04:36:19;74.20;;;30.73;;
27539;SDS011;15906;52.046;4.724;2022-12-18T04:38:44;65.43;;;27.07;;
27539;SDS011;15906;52.046;4.724;2022-12-18T04:41:13;88.73;;;30.17;;
27539;SDS011;15906;52.046;4.724;2022-12-18T04:43:38;75.70;;;29.57;;
27539;SDS011;15906;52.046;4.724;2022-12-18T04:46:04;75.80;;;29.10;;
27539;SDS011;15906;52.046;4.724;2022-12-18T04:48:31;72.10;;;28.17;;
27539;SDS011;15906;52.046;4.724;2022-12-18T04:50:57;72.67;;;29.03;;
27539;SDS011;15906;52.046;4.724;2022-12-18T04:53:22;70.83;;;29.07;;
27539;SDS011;15906;52.046;4.724;2022-12-18T04:55:48;70.60;;;28.43;;
27539;SDS011;15906;52.046;4.724;2022-12-18T04:58:13;71.43;;;29.40;;
27539;SDS011;15906;52.046;4.724;2022-12-18T05:00:39;87.70;;;30.07;;
27539;SDS011;15906;52.046;4.724;2022-12-18T05:03:04;65.87;;;29.40;;
27539;SDS011;15906;52.046;4.724;2022-12-18T05:05:30;77.43;;;28.03;;
27539;SDS011;15906;52.046;4.724;2022-12-18T05:07:56;76.07;;;31.10;;
27539;SDS011;15906;52.046;4.724;2022-12-18T05:10:21;68.30;;;27.63;;
27539;SDS011;15906;52.046;4.724;2022-12-18T05:12:47;71.17;;;28.63;;
27539;SDS011;15906;52.046;4.724;2022-12-18T05:15:31;67.67;;;27.30;;
27539;SDS011;15906;52.046;4.724;2022-12-18T05:17:58;66.00;;;27.13;;
27539;SDS011;15906;52.046;4.724;2022-12-18T05:20:24;68.63;;;27.77;;
27539;SDS011;15906;52.046;4.724;2022-12-18T05:22:51;65.93;;;28.57;;
27539;SDS011;15906;52.046;4.724;2022-12-18T05:25:17;62.27;;;28.50;;
27539;SDS011;15906;52.046;4.724;2022-12-18T05:27:43;63.77;;;27.13;;
27539;SDS011;15906;52.046;4.724;2022-12-18T05:30:09;61.50;;;25.17;;
27539;SDS011;15906;52.046;4.724;2022-12-18T05:32:35;59.20;;;25.40;;
27539;SDS011;15906;52.046;4.724;2022-12-18T05:35:01;63.00;;;24.97;;
27539;SDS011;15906;52.046;4.724;2022-12-18T05:37:27;58.40;;;25.13;;
27539;SDS011;15906;52.046;4.724;2022-12-18T05:39:52;66.87;;;25.83;;
27539;SDS011;15906;52.046;4.724;2022-12-18T05:42:18;58.30;;;24.30;;
27539;SDS011;15906;52.046;4.724;2022-12-18T05:44:43;59.83;;;24.40;;
27539;SDS011;15906;52.046;4.724;2022-12-18T05:47:09;56.20;;;24.03;;
27539;SDS011;15906;52.046;4.724;2022-12-18T05:49:34;63.83;;;25.33;;
27539;SDS011;15906;52.046;4.724;2022-12-18T05:52:00;60.00;;;25.83;;
27539;SDS011;15906;52.046;4.724;2022-12-18T05:54:29;59.80;;;25.33;;
27539;SDS011;15906;52.046;4.724;2022-12-18T05:56:54;52.80;;;23.87;;
27539;SDS011;15906;52.046;4.724;2022-12-18T05:59:20;55.67;;;24.73;;
27539;SDS011;15906;52.046;4.724;2022-12-18T06:01:45;57.77;;;24.73;;
27539;SDS011;15906;52.046;4.724;2022-12-18T06:04:11;56.93;;;25.60;;
27539;SDS011;15906;52.046;4.724;2022-12-18T06:06:37;56.23;;;24.17;;
27539;SDS011;15906;52.046;4.724;2022-12-18T06:09:03;57.57;;;26.13;;
27539;SDS011;15906;52.046;4.724;2022-12-18T06:11:33;60.20;;;25.87;;
27539;SDS011;15906;52.046;4.724;2022-12-18T06:14:03;56.70;;;26.27;;
27539;SDS011;15906;52.046;4.724;2022-12-18T06:16:30;58.77;;;24.50;;
27539;SDS011;15906;52.046;4.724;2022-12-18T06:18:56;52.57;;;23.63;;
27539;SDS011;15906;52.046;4.724;2022-12-18T06:21:23;62.57;;;24.27;;
27539;SDS011;15906;52.046;4.724;2022-12-18T06:23:48;50.17;;;23.47;;
27539;SDS011;15906;52.046;4.724;2022-12-18T06:26:14;56.67;;;25.33;;
27539;SDS011;15906;52.046;4.724;2022-12-18T06:28:39;52.90;;;23.63;;
27539;SDS011;15906;52.046;4.724;2022-12-18T06:31:06;54.43;;;24.53;;
27539;SDS011;15906;52.046;4.724;2022-12-18T06:33:32;46.50;;;22.13;;
27539;SDS011;15906;52.046;4.724;2022-12-18T06:36:08;54.60;;;23.93;;
27539;SDS011;15906;52.046;4.724;2022-12-18T06:38:37;62.60;;;24.77;;
27539;SDS011;15906;52.046;4.724;2022-12-18T06:41:10;51.50;;;23.73;;
27539;SDS011;15906;52.046;4.724;2022-12-18T06:43:37;51.80;;;24.20;;
27539;SDS011;15906;52.046;4.724;2022-12-18T06:46:03;49.10;;;23.87;;
27539;SDS011;15906;52.046;4.724;2022-12-18T06:48:29;52.20;;;24.37;;
27539;SDS011;15906;52.046;4.724;2022-12-18T06:50:55;58.27;;;22.93;;
27539;SDS011;15906;52.046;4.724;2022-12-18T06:53:21;54.57;;;24.17;;
27539;SDS011;15906;52.046;4.724;2022-12-18T06:55:47;54.10;;;23.33;;
27539;SDS011;15906;52.046;4.724;2022-12-18T06:58:12;58.80;;;23.50;;
27539;SDS011;15906;52.046;4.724;2022-12-18T07:00:38;49.67;;;24.20;;
27539;SDS011;15906;52.046;4.724;2022-12-18T07:03:04;36.73;;;15.83;;
27539;SDS011;15906;52.046;4.724;2022-12-18T07:05:29;49.20;;;24.97;;
27539;SDS011;15906;52.046;4.724;2022-12-18T07:07:55;51.37;;;23.37;;
27539;SDS011;15906;52.046;4.724;2022-12-18T07:10:20;63.63;;;26.70;;
27539;SDS011;15906;52.046;4.724;2022-12-18T07:12:46;54.40;;;25.27;;
27539;SDS011;15906;52.046;4.724;2022-12-18T07:15:11;52.20;;;23.77;;
27539;SDS011;15906;52.046;4.724;2022-12-18T07:17:37;60.40;;;26.07;;
27539;SDS011;15906;52.046;4.724;2022-12-18T07:20:03;46.80;;;22.73;;
27539;SDS011;15906;52.046;4.724;2022-12-18T07:22:29;56.77;;;25.83;;
27539;SDS011;15906;52.046;4.724;2022-12-18T07:24:54;54.50;;;26.83;;
27539;SDS011;15906;52.046;4.724;2022-12-18T07:27:20;57.90;;;27.07;;
27539;SDS011;15906;52.046;4.724;2022-12-18T07:29:47;53.33;;;26.53;;
27539;SDS011;15906;52.046;4.724;2022-12-18T07:32:12;52.17;;;26.40;;
27539;SDS011;15906;52.046;4.724;2022-12-18T07:34:38;55.37;;;25.90;;
27539;SDS011;15906;52.046;4.724;2022-12-18T07:37:03;55.90;;;27.80;;
27539;SDS011;15906;52.046;4.724;2022-12-18T07:39:29;51.53;;;23.43;;
27539;SDS011;15906;52.046;4.724;2022-12-18T07:41:55;52.47;;;27.37;;
27539;SDS011;15906;52.046;4.724;2022-12-18T07:44:39;47.80;;;25.07;;
27539;SDS011;15906;52.046;4.724;2022-12-18T07:47:05;53.23;;;26.13;;
27539;SDS011;15906;52.046;4.724;2022-12-18T07:49:30;51.33;;;25.20;;
27539;SDS011;15906;52.046;4.724;2022-12-18T07:51:56;49.67;;;26.70;;
27539;SDS011;15906;52.046;4.724;2022-12-18T07:54:23;48.07;;;26.23;;
27539;SDS011;15906;52.046;4.724;2022-12-18T07:56:49;49.40;;;25.43;;
27539;SDS011;15906;52.046;4.724;2022-12-18T07:59:15;52.33;;;25.23;;
27539;SDS011;15906;52.046;4.724;2022-12-18T08:01:41;45.47;;;23.30;;
27539;SDS011;15906;52.046;4.724;2022-12-18T08:04:06;49.13;;;26.93;;
27539;SDS011;15906;52.046;4.724;2022-12-18T08:06:32;50.30;;;26.10;;
27539;SDS011;15906;52.046;4.724;2022-12-18T08:08:57;40.83;;;21.70;;
27539;SDS011;15906;52.046;4.724;2022-12-18T08:11:24;44.50;;;22.90;;
27539;SDS011;15906;52.046;4.724;2022-12-18T08:13:51;46.33;;;22.70;;
27539;SDS011;15906;52.046;4.724;2022-12-18T08:16:17;50.97;;;25.70;;
27539;SDS011;15906;52.046;4.724;2022-12-18T08:18:42;50.27;;;23.57;;
27539;SDS011;15906;52.046;4.724;2022-12-18T08:21:09;46.00;;;24.47;;
27539;SDS011;15906;52.046;4.724;2022-12-18T08:23:35;47.57;;;22.17;;
27539;SDS011;15906;52.046;4.724;2022-12-18T08:26:01;42.67;;;24.37;;
27539;SDS011;15906;52.046;4.724;2022-12-18T08:28:27;48.13;;;24.27;;
27539;SDS011;15906;52.046;4.724;2022-12-18T08:30:53;48.07;;;24.27;;
27539;SDS011;15906;52.046;4.724;2022-12-18T08:33:18;52.07;;;24.97;;
27539;SDS011;15906;52.046;4.724;2022-12-18T08:35:44;45.97;;;24.33;;
27539;SDS011;15906;52.046;4.724;2022-12-18T08:38:09;45.37;;;22.87;;
27539;SDS011;15906;52.046;4.724;2022-12-18T08:40:35;50.10;;;23.67;;
27539;SDS011;15906;52.046;4.724;2022-12-18T08:43:01;46.17;;;23.67;;
27539;SDS011;15906;52.046;4.724;2022-12-18T08:45:45;46.30;;;23.37;;
27539;SDS011;15906;52.046;4.724;2022-12-18T08:48:10;50.03;;;24.17;;
27539;SDS011;15906;52.046;4.724;2022-12-18T08:50:36;48.67;;;23.63;;
27539;SDS011;15906;52.046;4.724;2022-12-18T08:53:01;45.30;;;22.80;;
27539;SDS011;15906;52.046;4.724;2022-12-18T08:55:27;39.23;;;22.30;;
27539;SDS011;15906;52.046;4.724;2022-12-18T08:57:52;45.70;;;22.77;;
27539;SDS011;15906;52.046;4.724;2022-12-18T09:00:18;48.33;;;23.40;;
27539;SDS011;15906;52.046;4.724;2022-12-18T09:02:44;49.40;;;24.57;;
27539;SDS011;15906;52.046;4.724;2022-12-18T09:05:10;50.10;;;23.87;;
27539;SDS011;15906;52.046;4.724;2022-12-18T09:07:36;44.70;;;23.33;;
27539;SDS011;15906;52.046;4.724;2022-12-18T09:10:02;47.87;;;24.97;;
27539;SDS011;15906;52.046;4.724;2022-12-18T09:12:28;47.27;;;23.10;;
27539;SDS011;15906;52.046;4.724;2022-12-18T09:14:53;46.37;;;23.80;;
27539;SDS011;15906;52.046;4.724;2022-12-18T09:17:19;42.80;;;24.03;;
27539;SDS011;15906;52.046;4.724;2022-12-18T09:19:44;49.70;;;24.87;;
27539;SDS011;15906;52.046;4.724;2022-12-18T09:22:10;46.43;;;24.03;;
27539;SDS011;15906;52.046;4.724;2022-12-18T09:24:35;50.07;;;24.47;;
27539;SDS011;15906;52.046;4.724;2022-12-18T09:27:01;44.23;;;23.57;;
27539;SDS011;15906;52.046;4.724;2022-12-18T09:29:26;46.83;;;24.13;;
27539;SDS011;15906;52.046;4.724;2022-12-18T09:31:52;45.37;;;22.13;;
27539;SDS011;15906;52.046;4.724;2022-12-18T09:34:18;42.50;;;24.77;;
27539;SDS011;15906;52.046;4.724;2022-12-18T09:36:45;41.30;;;23.27;;
27539;SDS011;15906;52.046;4.724;2022-12-18T09:39:11;48.33;;;25.07;;
27539;SDS011;15906;52.046;4.724;2022-12-18T09:44:29;47.73;;;24.07;;
27539;SDS011;15906;52.046;4.724;2022-12-18T09:47:07;41.97;;;22.83;;
27539;SDS011;15906;52.046;4.724;2022-12-18T09:49:42;46.40;;;23.37;;
27539;SDS011;15906;52.046;4.724;2022-12-18T09:55:41;48.03;;;23.27;;
27539;SDS011;15906;52.046;4.724;2022-12-18T09:57:53;43.73;;;23.47;;
27539;SDS011;15906;52.046;4.724;2022-12-18T10:00:22;44.90;;;22.50;;
27539;SDS011;15906;52.046;4.724;2022-12-18T10:02:50;41.93;;;22.73;;
27539;SDS011;15906;52.046;4.724;2022-12-18T10:05:26;44.67;;;22.73;;
27539;SDS011;15906;52.046;4.724;2022-12-18T10:10:41;44.67;;;20.23;;
27539;SDS011;15906;52.046;4.724;2022-12-18T10:13:22;41.60;;;22.90;;
27539;SDS011;15906;52.046;4.724;2022-12-18T10:21:49;47.60;;;21.93;;
27539;SDS011;15906;52.046;4.724;2022-12-18T10:24:32;44.20;;;20.07;;
27539;SDS011;15906;52.046;4.724;2022-12-18T10:27:22;43.53;;;21.57;;
27539;SDS011;15906;52.046;4.724;2022-12-18T10:29:49;45.90;;;20.10;;
27539;SDS011;15906;52.046;4.724;2022-12-18T10:32:16;41.93;;;21.17;;
27539;SDS011;15906;52.046;4.724;2022-12-18T10:34:45;39.20;;;20.87;;
27539;SDS011;15906;52.046;4.724;2022-12-18T10:37:16;41.20;;;21.53;;
27539;SDS011;15906;52.046;4.724;2022-12-18T10:39:43;40.83;;;19.60;;
27539;SDS011;15906;52.046;4.724;2022-12-18T10:42:11;35.90;;;19.20;;
27539;SDS011;15906;52.046;4.724;2022-12-18T10:44:46;43.80;;;22.53;;
27539;SDS011;15906;52.046;4.724;2022-12-18T10:47:27;43.33;;;22.27;;
27539;SDS011;15906;52.046;4.724;2022-12-18T10:49:53;51.83;;;26.13;;
27539;SDS011;15906;52.046;4.724;2022-12-18T10:52:21;47.67;;;22.53;;
27539;SDS011;15906;52.046;4.724;2022-12-18T10:54:49;45.73;;;24.60;;
27539;SDS011;15906;52.046;4.724;2022-12-18T11:02:52;36.70;;;20.97;;
27539;SDS011;15906;52.046;4.724;2022-12-18T11:07:53;39.37;;;21.60;;
27539;SDS011;15906;52.046;4.724;2022-12-18T11:10:20;37.67;;;21.13;;
27539;SDS011;15906;52.046;4.724;2022-12-18T11:12:47;37.40;;;20.87;;
27539;SDS011;15906;52.046;4.724;2022-12-18T11:15:19;37.13;;;20.93;;
27539;SDS011;15906;52.046;4.724;2022-12-18T11:17:48;37.03;;;20.83;;
27539;SDS011;15906;52.046;4.724;2022-12-18T11:23:05;36.50;;;19.37;;
27539;SDS011;15906;52.046;4.724;2022-12-18T11:25:37;31.20;;;17.97;;
27539;SDS011;15906;52.046;4.724;2022-12-18T11:28:05;30.90;;;15.70;;
27539;SDS011;15906;52.046;4.724;2022-12-18T11:30:49;38.80;;;19.77;;
27539;SDS011;15906;52.046;4.724;2022-12-18T11:33:32;47.17;;;22.83;;
27539;SDS011;15906;52.046;4.724;2022-12-18T11:35:59;42.60;;;21.67;;
27539;SDS011;15906;52.046;4.724;2022-12-18T11:38:29;41.73;;;20.97;;
27539;SDS011;15906;52.046;4.724;2022-12-18T11:44:09;32.03;;;17.57;;
27539;SDS011;15906;52.046;4.724;2022-12-18T11:46:43;34.97;;;19.50;;
27539;SDS011;15906;52.046;4.724;2022-12-18T11:49:15;35.30;;;20.00;;
27539;SDS011;15906;52.046;4.724;2022-12-18T11:51:57;36.53;;;18.60;;
27539;SDS011;15906;52.046;4.724;2022-12-18T11:54:28;34.30;;;18.20;;
27539;SDS011;15906;52.046;4.724;2022-12-18T12:05:45;36.43;;;20.03;;
27539;SDS011;15906;52.046;4.724;2022-12-18T12:08:30;40.60;;;19.43;;
27539;SDS011;15906;52.046;4.724;2022-12-18T12:30:20;34.87;;;18.07;;
27539;SDS011;15906;52.046;4.724;2022-12-18T12:36:01;31.90;;;17.67;;
27539;SDS011;15906;52.046;4.724;2022-12-18T12:38:46;34.90;;;19.27;;
27539;SDS011;15906;52.046;4.724;2022-12-18T12:41:19;36.73;;;19.70;;
27539;SDS011;15906;52.046;4.724;2022-12-18T12:44:07;32.60;;;18.43;;
27539;SDS011;15906;52.046;4.724;2022-12-18T12:46:39;32.93;;;18.07;;
27539;SDS011;15906;52.046;4.724;2022-12-18T12:49:11;33.87;;;18.63;;
27539;SDS011;15906;52.046;4.724;2022-12-18T12:51:46;31.70;;;18.63;;
27539;SDS011;15906;52.046;4.724;2022-12-18T12:54:30;33.60;;;17.63;;
27539;SDS011;15906;52.046;4.724;2022-12-18T12:57:01;30.53;;;17.97;;
27539;SDS011;15906;52.046;4.724;2022-12-18T13:02:42;30.27;;;18.07;;
27539;SDS011;15906;52.046;4.724;2022-12-18T13:08:07;31.63;;;17.23;;
27539;SDS011;15906;52.046;4.724;2022-12-18T13:10:53;33.33;;;19.10;;
27539;SDS011;15906;52.046;4.724;2022-12-18T13:13:53;34.70;;;19.27;;
27539;SDS011;15906;52.046;4.724;2022-12-18T13:16:22;38.43;;;18.83;;
27539;SDS011;15906;52.046;4.724;2022-12-18T13:18:50;38.70;;;19.07;;
27539;SDS011;15906;52.046;4.724;2022-12-18T13:21:21;34.60;;;18.87;;
27539;SDS011;15906;52.046;4.724;2022-12-18T13:23:52;36.10;;;18.87;;
27539;SDS011;15906;52.046;4.724;2022-12-18T13:31:10;37.70;;;19.97;;
27539;SDS011;15906;52.046;4.724;2022-12-18T13:33:43;36.27;;;20.83;;
27539;SDS011;15906;52.046;4.724;2022-12-18T13:38:40;38.30;;;19.77;;
27539;SDS011;15906;52.046;4.724;2022-12-18T13:46:27;34.97;;;19.83;;
27539;SDS011;15906;52.046;4.724;2022-12-18T13:51:29;40.57;;;21.87;;
27539;SDS011;15906;52.046;4.724;2022-12-18T13:53:59;38.10;;;20.90;;
27539;SDS011;15906;52.046;4.724;2022-12-18T13:56:28;39.77;;;21.47;;
27539;SDS011;15906;52.046;4.724;2022-12-18T14:01:33;36.27;;;20.33;;
27539;SDS011;15906;52.046;4.724;2022-12-18T14:04:09;35.73;;;20.40;;
27539;SDS011;15906;52.046;4.724;2022-12-18T14:06:44;36.30;;;18.80;;
27539;SDS011;15906;52.046;4.724;2022-12-18T14:09:14;37.50;;;17.60;;
27539;SDS011;15906;52.046;4.724;2022-12-18T14:11:49;31.47;;;16.47;;
27539;SDS011;15906;52.046;4.724;2022-12-18T14:14:16;37.50;;;20.97;;
27539;SDS011;15906;52.046;4.724;2022-12-18T14:16:44;33.77;;;17.40;;
27539;SDS011;15906;52.046;4.724;2022-12-18T14:19:15;38.07;;;19.93;;
27539;SDS011;15906;52.046;4.724;2022-12-18T14:21:46;37.53;;;20.53;;
27539;SDS011;15906;52.046;4.724;2022-12-18T14:24:17;38.03;;;20.33;;
27539;SDS011;15906;52.046;4.724;2022-12-18T14:26:45;35.53;;;20.20;;
27539;SDS011;15906;52.046;4.724;2022-12-18T14:29:19;30.13;;;16.60;;
27539;SDS011;15906;52.046;4.724;2022-12-18T14:32:14;26.83;;;14.77;;
27539;SDS011;15906;52.046;4.724;2022-12-18T14:34:49;36.90;;;19.70;;
27539;SDS011;15906;52.046;4.724;2022-12-18T14:37:17;37.17;;;20.60;;
27539;SDS011;15906;52.046;4.724;2022-12-18T14:39:52;38.50;;;21.23;;
27539;SDS011;15906;52.046;4.724;2022-12-18T14:42:19;36.73;;;19.73;;
27539;SDS011;15906;52.046;4.724;2022-12-18T14:44:45;36.27;;;19.27;;
27539;SDS011;15906;52.046;4.724;2022-12-18T14:47:15;38.90;;;19.83;;
27539;SDS011;15906;52.046;4.724;2022-12-18T14:49:41;41.17;;;20.53;;
27539;SDS011;15906;52.046;4.724;2022-12-18T14:52:27;37.37;;;19.97;;
27539;SDS011;15906;52.046;4.724;2022-12-18T14:54:56;36.47;;;20.07;;
27539;SDS011;15906;52.046;4.724;2022-12-18T14:57:23;37.37;;;19.60;;
27539;SDS011;15906;52.046;4.724;2022-12-18T14:59:51;34.70;;;21.17;;
27539;SDS011;15906;52.046;4.724;2022-12-18T15:02:18;43.03;;;21.93;;
27539;SDS011;15906;52.046;4.724;2022-12-18T15:04:47;37.57;;;19.10;;
27539;SDS011;15906;52.046;4.724;2022-12-18T15:07:46;37.97;;;21.83;;
27539;SDS011;15906;52.046;4.724;2022-12-18T15:10:15;37.27;;;21.10;;
27539;SDS011;15906;52.046;4.724;2022-12-18T15:12:44;35.93;;;19.90;;
27539;SDS011;15906;52.046;4.724;2022-12-18T15:26:03;35.50;;;19.77;;
27539;SDS011;15906;52.046;4.724;2022-12-18T15:28:40;37.07;;;20.03;;
27539;SDS011;15906;52.046;4.724;2022-12-18T15:31:24;37.80;;;20.70;;
27539;SDS011;15906;52.046;4.724;2022-12-18T15:36:21;35.80;;;18.90;;
27539;SDS011;15906;52.046;4.724;2022-12-18T15:38:48;33.70;;;18.53;;
27539;SDS011;15906;52.046;4.724;2022-12-18T15:41:16;33.80;;;19.60;;
27539;SDS011;15906;52.046;4.724;2022-12-18T15:43:43;38.33;;;20.63;;
27539;SDS011;15906;52.046;4.724;2022-12-18T15:46:15;36.60;;;20.20;;
27539;SDS011;15906;52.046;4.724;2022-12-18T15:48:43;45.77;;;20.17;;
27539;SDS011;15906;52.046;4.724;2022-12-18T15:51:15;38.33;;;20.80;;
27539;SDS011;15906;52.046;4.724;2022-12-18T15:53:47;33.07;;;18.70;;
27539;SDS011;15906;52.046;4.724;2022-12-18T15:56:15;35.13;;;19.10;;
27539;SDS011;15906;52.046;4.724;2022-12-18T15:59:00;34.33;;;18.70;;
27539;SDS011;15906;52.046;4.724;2022-12-18T16:01:27;32.60;;;18.60;;
27539;SDS011;15906;52.046;4.724;2022-12-18T16:03:54;34.73;;;18.73;;
27539;SDS011;15906;52.046;4.724;2022-12-18T16:06:21;36.07;;;18.97;;
27539;SDS011;15906;52.046;4.724;2022-12-18T16:08:48;32.40;;;18.63;;
27539;SDS011;15906;52.046;4.724;2022-12-18T16:11:19;35.60;;;18.00;;
27539;SDS011;15906;52.046;4.724;2022-12-18T16:14:02;26.00;;;14.43;;
27539;SDS011;15906;52.046;4.724;2022-12-18T16:16:48;30.37;;;16.03;;
27539;SDS011;15906;52.046;4.724;2022-12-18T16:19:43;37.30;;;21.10;;
27539;SDS011;15906;52.046;4.724;2022-12-18T16:22:22;39.90;;;22.83;;
27539;SDS011;15906;52.046;4.724;2022-12-18T16:24:50;58.83;;;25.73;;
27539;SDS011;15906;52.046;4.724;2022-12-18T16:27:17;60.37;;;29.80;;
27539;SDS011;15906;52.046;4.724;2022-12-18T16:29:43;58.07;;;28.40;;
27539;SDS011;15906;52.046;4.724;2022-12-18T16:32:10;53.67;;;27.23;;
27539;SDS011;15906;52.046;4.724;2022-12-18T16:34:39;49.57;;;24.33;;
27539;SDS011;15906;52.046;4.724;2022-12-18T16:37:06;45.50;;;21.90;;
27539;SDS011;15906;52.046;4.724;2022-12-18T16:39:33;40.00;;;18.93;;
27539;SDS011;15906;52.046;4.724;2022-12-18T16:41:59;36.60;;;19.57;;
27539;SDS011;15906;52.046;4.724;2022-12-18T16:44:25;34.53;;;19.00;;
27539;SDS011;15906;52.046;4.724;2022-12-18T16:46:51;32.60;;;18.47;;
27539;SDS011;15906;52.046;4.724;2022-12-18T16:49:17;32.73;;;18.37;;